Nave Neutrino — VRYU3 — position and weather

sailwx.info

Track history (hours):
 
Tides and Currents Weather Stations Pressure Air Temp Water Temp Dewpoint Dewpoint Depression Visibility Wind Speed Wind Dir Waves Ship Positions

Nave Neutrino

Last reported at 2018-Feb-19 14:00 UTC. Time now 2018-Feb-19 14:23 UTC.
Position N 28°20' W 014°56'.

Length 333 m; draft 19.8 m.

Type: Ship. MMSI: 477409000.

Date/timePositionNaut miles runAvg speedWind from/ knotsBaromVisibWave heightAir tempDewpointWater temp
2018-Feb-19 14:00N 28°20' W 014°56'611.6
2018-Feb-19 13:28N 28°26' W 014°54'511.6
2018-Feb-19 13:00N 28°31' W 014°52'611.5
2018-Feb-19 12:30N 28°37' W 014°50'611.4
2018-Feb-19 12:00N 28°42' W 014°48'  
2018-Feb-17 06:57N 38°03' W 011°10'510.4
2018-Feb-17 06:30N 38°08' W 011°09'  
2018-Feb-14 12:49N 47°22' W 006°47'6 8.8
2018-Feb-14 12:07N 47°27' W 006°42'6 8.6
2018-Feb-14 11:26N 47°31' W 006°36'4 8.4
2018-Feb-14 10:55N 47°35' W 006°33'76 9.2
2018-Feb-14 02:38N 48°46' W 005°52'1 7.6
2018-Feb-14 02:28N 48°47' W 005°51'5 7.7
2018-Feb-14 01:49N 48°52' W 005°48'21 7.0
2018-Feb-13 22:52N 49°04' W 005°22'68 7.7
2018-Feb-13 14:03N 49°38' W 003°52'1 8.4
2018-Feb-13 13:58N 49°38' W 003°51'10 8.9
2018-Feb-13 12:50N 49°43' W 003°37'5 9.5
2018-Feb-13 12:21N 49°46' W 003°31'310.0
2018-Feb-13 12:00N 49°48' W 003°27'510.1
2018-Feb-13 11:31N 49°50' W 003°20'610.1
2018-Feb-13 10:56N 49°53' W 003°12'410.0
2018-Feb-13 10:30N 49°55' W 003°06'5 9.7
2018-Feb-13 10:00N 49°57' W 002°59'4 9.0
2018-Feb-13 09:31N 49°59' W 002°53'4 7.6
2018-Feb-13 09:00N 50°00' W 002°47'4 7.2
2018-Feb-13 08:31N 50°01' W 002°42'4 7.1
2018-Feb-13 08:01N 50°02' W 002°37'4 7.3
2018-Feb-13 07:31N 50°03' W 002°31'4 7.4
2018-Feb-13 06:57N 50°04' W 002°25'12 6.9
2018-Feb-13 05:16N 50°07' W 002°07'2 7.5
2018-Feb-13 05:00N 50°07' W 002°04'4 7.9
2018-Feb-13 04:30N 50°08' W 001°59'4 8.6
2018-Feb-13 04:00N 50°10' W 001°52'5 9.4
2018-Feb-13 03:30N 50°11' W 001°45'510.1
2018-Feb-13 03:00N 50°12' W 001°38'510.7
2018-Feb-13 02:31N 50°14' W 001°29'611.4
2018-Feb-13 02:00N 50°15' W 001°21'611.7
2018-Feb-13 01:30N 50°17' W 001°12'612.2
2018-Feb-13 00:59N 50°18' W 001°02'2011.8
2018-Feb-12 23:16N 50°24' W 000°32'311.3
2018-Feb-12 23:00N 50°24' W 000°27'611.1
2018-Feb-12 22:31N 50°26' W 000°19'510.7
2018-Feb-12 22:01N 50°27' W 000°11'510.4
2018-Feb-12 21:30N 50°28' W 000°03'510.3
2018-Feb-12 21:00N 50°30' E 000°05'510.1
2018-Feb-12 20:31N 50°31' E 000°13'5 9.7
2018-Feb-12 20:01N 50°32' E 000°20'5 9.7
2018-Feb-12 19:30N 50°33' E 000°28'5 9.3
2018-Feb-12 19:01N 50°35' E 000°34'5 9.8
2018-Feb-12 18:31N 50°38' E 000°40'510.3
2018-Feb-12 18:01N 50°41' E 000°47'510.9
2018-Feb-12 17:31N 50°44' E 000°54'611.4
2018-Feb-12 17:01N 50°47' E 001°01'611.8
2018-Feb-12 16:31N 50°51' E 001°09'612.0
2018-Feb-12 16:01N 50°54' E 001°17'612.2
2018-Feb-12 15:31N 50°59' E 001°23'612.0
2018-Feb-12 15:01N 51°03' E 001°29'611.5
2018-Feb-12 14:30N 51°07' E 001°36'611.0
2018-Feb-12 14:00N 51°10' E 001°43'510.5
2018-Feb-12 13:31N 51°15' E 001°47'510.3
2018-Feb-12 13:00N 51°20' E 001°51'5 9.9
2018-Feb-12 12:31N 51°24' E 001°55'5 9.6
2018-Feb-12 12:01N 51°28' E 001°59'5 9.7
2018-Feb-12 11:30N 51°31' E 002°05'5 9.6
2018-Feb-12 11:01N 51°34' E 002°11'5 9.8
2018-Feb-12 10:30N 51°38' E 002°16'510.0
2018-Feb-12 10:00N 51°41' E 002°22'510.4
2018-Feb-12 09:30N 51°45' E 002°27'278 9.9
2018-Feb-11 05:25N 55°52' W 001°13'511.0
2018-Feb-11 05:01N 55°54' W 001°20'611.1
2018-Feb-11 04:31N 55°56' W 001°29'611.2
2018-Feb-11 04:01N 55°58' W 001°38'611.4
2018-Feb-11 03:30N 56°01' W 001°48'611.3
2018-Feb-11 03:01N 56°02' W 001°58'611.3
2018-Feb-11 02:30N 56°03' W 002°08'611.4
2018-Feb-11 02:00N 56°05' W 002°17'611.6
2018-Feb-11 01:30N 56°07' W 002°27'611.4
2018-Feb-11 01:01N 56°07' W 002°37'611.4
2018-Feb-11 00:30N 56°07' W 002°47'510.6
2018-Feb-11 00:00N 56°05' W 002°56'4 7.8
2018-Feb-10 23:31N 56°03' W 003°03'3 6.5
2018-Feb-10 23:00N 56°03' W 003°08'3 6.7
2018-Feb-10 22:31N 56°02' W 003°14'3 6.7
2018-Feb-10 22:01N 56°01' W 003°20'  
Track history (hours):
 
Tides and Currents Weather Stations Pressure Air Temp Water Temp Dewpoint Dewpoint Depression Visibility Wind Speed Wind Dir Waves Ship Positions

Nave Neutrino

Last reported at 2018-Feb-19 14:00 UTC. Time now 2018-Feb-19 14:23 UTC.
Position N 28°20' W 014°56'.

Length 333 m; draft 19.8 m.

Type: Ship. MMSI: 477409000.

Date/timePositionNaut miles runAvg speedWind from/ knotsBaromVisibWave heightAir tempDewpointWater temp
2018-Feb-19 14:00N 28°20' W 014°56'611.6
2018-Feb-19 13:28N 28°26' W 014°54'511.6
2018-Feb-19 13:00N 28°31' W 014°52'611.5
2018-Feb-19 12:30N 28°37' W 014°50'611.4
2018-Feb-19 12:00N 28°42' W 014°48'  
2018-Feb-17 06:57N 38°03' W 011°10'510.4
2018-Feb-17 06:30N 38°08' W 011°09'  
2018-Feb-14 12:49N 47°22' W 006°47'6 8.8
2018-Feb-14 12:07N 47°27' W 006°42'6 8.6
2018-Feb-14 11:26N 47°31' W 006°36'4 8.4
2018-Feb-14 10:55N 47°35' W 006°33'76 9.2
2018-Feb-14 02:38N 48°46' W 005°52'1 7.6
2018-Feb-14 02:28N 48°47' W 005°51'5 7.7
2018-Feb-14 01:49N 48°52' W 005°48'21 7.0
2018-Feb-13 22:52N 49°04' W 005°22'68 7.7
2018-Feb-13 14:03N 49°38' W 003°52'1 8.4
2018-Feb-13 13:58N 49°38' W 003°51'10 8.9
2018-Feb-13 12:50N 49°43' W 003°37'5 9.5
2018-Feb-13 12:21N 49°46' W 003°31'310.0
2018-Feb-13 12:00N 49°48' W 003°27'510.1
2018-Feb-13 11:31N 49°50' W 003°20'610.1
2018-Feb-13 10:56N 49°53' W 003°12'410.0
2018-Feb-13 10:30N 49°55' W 003°06'5 9.7
2018-Feb-13 10:00N 49°57' W 002°59'4 9.0
2018-Feb-13 09:31N 49°59' W 002°53'4 7.6
2018-Feb-13 09:00N 50°00' W 002°47'4 7.2
2018-Feb-13 08:31N 50°01' W 002°42'4 7.1
2018-Feb-13 08:01N 50°02' W 002°37'4 7.3
2018-Feb-13 07:31N 50°03' W 002°31'4 7.4
2018-Feb-13 06:57N 50°04' W 002°25'12 6.9
2018-Feb-13 05:16N 50°07' W 002°07'2 7.5
2018-Feb-13 05:00N 50°07' W 002°04'4 7.9
2018-Feb-13 04:30N 50°08' W 001°59'4 8.6
2018-Feb-13 04:00N 50°10' W 001°52'5 9.4
2018-Feb-13 03:30N 50°11' W 001°45'510.1
2018-Feb-13 03:00N 50°12' W 001°38'510.7
2018-Feb-13 02:31N 50°14' W 001°29'611.4
2018-Feb-13 02:00N 50°15' W 001°21'611.7
2018-Feb-13 01:30N 50°17' W 001°12'612.2
2018-Feb-13 00:59N 50°18' W 001°02'2011.8
2018-Feb-12 23:16N 50°24' W 000°32'311.3
2018-Feb-12 23:00N 50°24' W 000°27'611.1
2018-Feb-12 22:31N 50°26' W 000°19'510.7
2018-Feb-12 22:01N 50°27' W 000°11'510.4
2018-Feb-12 21:30N 50°28' W 000°03'510.3
2018-Feb-12 21:00N 50°30' E 000°05'510.1
2018-Feb-12 20:31N 50°31' E 000°13'5 9.7
2018-Feb-12 20:01N 50°32' E 000°20'5 9.7
2018-Feb-12 19:30N 50°33' E 000°28'5 9.3
2018-Feb-12 19:01N 50°35' E 000°34'5 9.8
2018-Feb-12 18:31N 50°38' E 000°40'510.3
2018-Feb-12 18:01N 50°41' E 000°47'510.9
2018-Feb-12 17:31N 50°44' E 000°54'611.4
2018-Feb-12 17:01N 50°47' E 001°01'611.8
2018-Feb-12 16:31N 50°51' E 001°09'612.0
2018-Feb-12 16:01N 50°54' E 001°17'612.2
2018-Feb-12 15:31N 50°59' E 001°23'612.0
2018-Feb-12 15:01N 51°03' E 001°29'611.5
2018-Feb-12 14:30N 51°07' E 001°36'611.0
2018-Feb-12 14:00N 51°10' E 001°43'510.5
2018-Feb-12 13:31N 51°15' E 001°47'510.3
2018-Feb-12 13:00N 51°20' E 001°51'5 9.9
2018-Feb-12 12:31N 51°24' E 001°55'5 9.6
2018-Feb-12 12:01N 51°28' E 001°59'5 9.7
2018-Feb-12 11:30N 51°31' E 002°05'5 9.6
2018-Feb-12 11:01N 51°34' E 002°11'5 9.8
2018-Feb-12 10:30N 51°38' E 002°16'510.0
2018-Feb-12 10:00N 51°41' E 002°22'510.4
2018-Feb-12 09:30N 51°45' E 002°27'278 9.9
2018-Feb-11 05:25N 55°52' W 001°13'511.0
2018-Feb-11 05:01N 55°54' W 001°20'611.1
2018-Feb-11 04:31N 55°56' W 001°29'611.2
2018-Feb-11 04:01N 55°58' W 001°38'611.4
2018-Feb-11 03:30N 56°01' W 001°48'611.3
2018-Feb-11 03:01N 56°02' W 001°58'611.3
2018-Feb-11 02:30N 56°03' W 002°08'611.4
2018-Feb-11 02:00N 56°05' W 002°17'611.6
2018-Feb-11 01:30N 56°07' W 002°27'611.4
2018-Feb-11 01:01N 56°07' W 002°37'611.4
2018-Feb-11 00:30N 56°07' W 002°47'510.6
2018-Feb-11 00:00N 56°05' W 002°56'4 7.8
2018-Feb-10 23:31N 56°03' W 003°03'3 6.5
2018-Feb-10 23:00N 56°03' W 003°08'3 6.7
2018-Feb-10 22:31N 56°02' W 003°14'3 6.7
2018-Feb-10 22:01N 56°01' W 003°20'  

Dump ship's entire track history